Time;durP1;ratioP1;P1;durP2;ratioP2;P2;SDS_P1;SDS_P2;PMS_P1;PMS_P2;Temp;Humidity;BMP_temperature;BMP_pressure;BME280_temperature;BME280_humidity;BME280_pressure;Samples;Min_cycle;Max_cycle;Signal;HPM_P1;HPM_P2
2021/12/04 00:02:22;;;;;;;;;;;5.30;99.90;;;;;;5017867;28;20332;-68
2021/12/04 00:04:50;;;;;;;;;;;5.30;99.90;;;;;;5030072;28;19921;-68
2021/12/04 00:07:15;;;;;;;;;;;5.30;99.90;;;;;;5017145;28;19909;-68
2021/12/04 00:09:45;;;;;;;;;;;5.30;99.90;;;;;;5010294;28;19928;-70
2021/12/04 00:12:11;;;;;;;;;;;5.30;99.90;;;;;;5010134;28;19921;-69
2021/12/04 00:14:36;;;;;;;;;;;5.30;99.90;;;;;;5009408;28;19910;-68
2021/12/04 00:17:02;;;;;;;;;;;5.40;99.90;;;;;;5010690;28;19914;-69
2021/12/04 00:19:28;;;;;;;;;;;5.40;99.90;;;;;;5009519;28;19910;-69
2021/12/04 00:21:54;;;;;;;;;;;5.40;99.90;;;;;;5009108;28;20015;-68
2021/12/04 00:24:20;;;;;;;;;;;5.40;99.90;;;;;;5009352;28;20005;-68
2021/12/04 00:26:46;;;;;;;;;;;5.40;99.90;;;;;;5009480;28;19925;-69
2021/12/04 00:29:12;;;;;;;;;;;5.40;99.90;;;;;;5009453;28;19949;-69
2021/12/04 00:31:40;;;;;;;;;;;5.50;99.90;;;;;;5007759;28;19956;-69
2021/12/04 00:34:06;;;;;;;;;;;5.50;99.90;;;;;;5021963;28;19909;-69
2021/12/04 00:50:10;;;;;;;;;;;5.60;99.90;;;;;;5012639;28;19959;-67
2021/12/04 00:52:35;;;;;;;;;;;5.50;99.90;;;;;;5024403;28;19988;-69
2021/12/04 00:55:01;;;;;;;;;;;5.50;99.90;;;;;;5009092;28;19967;-69
2021/12/04 00:57:27;;;;;;;;;;;5.60;99.90;;;;;;5017480;28;19913;-70
2021/12/04 00:59:52;;;;;;;;;;;5.60;99.90;;;;;;5012862;28;19950;-70
2021/12/04 01:02:19;;;;;;;;;;;5.60;99.90;;;;;;5008872;28;19948;-69
2021/12/04 01:04:44;;;;;;;;;;;5.60;99.90;;;;;;5008316;28;20001;-69
2021/12/04 01:07:10;;;;;;;;;;;5.60;99.90;;;;;;5008459;28;20004;-70
2021/12/04 01:09:36;;;;;;;;;;;5.60;99.90;;;;;;5011167;28;19914;-69
2021/12/04 01:12:02;;;;;;;;;;;5.60;99.90;;;;;;5008570;28;19937;-69
2021/12/04 01:14:28;;;;;;;;;;;5.60;99.90;;;;;;5008905;28;19913;-69
2021/12/04 01:16:53;;;;;;;;;;;5.70;99.90;;;;;;5010073;28;19914;-69
2021/12/04 01:19:19;;;;;;;;;;;5.70;99.90;;;;;;5009535;28;19921;-69
2021/12/04 01:21:45;;;;;;;;;;;5.70;99.90;;;;;;5009258;28;19909;-69
2021/12/04 01:24:11;;;;;;;;;;;5.60;99.90;;;;;;5007959;28;19967;-69
2021/12/04 01:26:37;;;;;;;;;;;5.60;99.90;;;;;;5008512;28;20004;-69
2021/12/04 01:29:02;;;;;;;;;;;5.70;99.90;;;;;;5007863;28;19914;-70
2021/12/04 01:31:28;;;;;;;;;;;5.60;99.90;;;;;;5008563;28;19940;-68
2021/12/04 01:33:54;;;;;;;;;;;5.60;99.90;;;;;;5007501;28;19995;-68
2021/12/04 01:36:19;;;;;;;;;;;5.60;99.90;;;;;;5023530;28;19909;-69
2021/12/04 01:38:45;;;;;;;;;;;5.60;99.90;;;;;;5007577;28;19920;-69
2021/12/04 01:41:10;;;;;;;;;;;5.60;99.90;;;;;;5008045;28;19971;-71
2021/12/04 01:43:36;;;;;;;;;;;5.60;99.90;;;;;;5007766;28;19960;-68
2021/12/04 01:46:01;;;;;;;;;;;5.70;99.90;;;;;;5008360;28;19967;-70
2021/12/04 01:48:27;;;;;;;;;;;5.50;99.90;;;;;;5008840;28;20232;-68
2021/12/04 01:50:54;;;;;;;;;;;5.50;99.90;;;;;;5009649;28;19928;-70
2021/12/04 01:53:20;;;;;;;;;;;5.50;99.90;;;;;;5008523;28;20004;-69
2021/12/04 01:55:46;;;;;;;;;;;5.50;99.90;;;;;;5014923;28;19937;-69
2021/12/04 01:58:12;;;;;;;;;;;5.60;99.90;;;;;;5033989;28;19913;-70
2021/12/04 02:00:38;;;;;;;;;;;5.60;99.90;;;;;;5017278;28;19931;-69
2021/12/04 02:03:07;;;;;;;;;;;5.60;99.90;;;;;;5008940;28;20365;-70
2021/12/04 02:05:33;;;;;;;;;;;5.60;99.90;;;;;;5008395;28;19917;-70
2021/12/04 02:07:59;;;;;;;;;;;5.50;99.90;;;;;;5008846;28;19910;-70
2021/12/04 02:10:25;;;;;;;;;;;5.60;99.90;;;;;;5007279;28;19913;-71
2021/12/04 02:12:50;;;;;;;;;;;5.60;99.90;;;;;;5007808;28;20532;-70
2021/12/04 02:15:17;;;;;;;;;;;5.50;99.90;;;;;;5007817;28;20055;-71
2021/12/04 02:17:46;;;;;;;;;;;5.60;99.90;;;;;;5008013;28;19976;-71
2021/12/04 02:20:15;;;;;;;;;;;5.60;99.90;;;;;;5007940;28;19914;-72
2021/12/04 02:22:41;;;;;;;;;;;5.60;99.90;;;;;;5008595;28;19916;-70
2021/12/04 02:25:08;;;;;;;;;;;5.60;99.90;;;;;;5008130;28;19933;-71
2021/12/04 02:27:34;;;;;;;;;;;5.70;99.90;;;;;;5008215;28;19913;-71
2021/12/04 02:30:00;;;;;;;;;;;5.70;99.90;;;;;;5008203;28;20399;-70
2021/12/04 02:32:26;;;;;;;;;;;5.70;99.90;;;;;;5007259;28;20594;-70
2021/12/04 02:34:51;;;;;;;;;;;5.70;99.90;;;;;;5007851;28;19913;-71
2021/12/04 02:37:16;;;;;;;;;;;5.60;99.90;;;;;;5007710;28;19909;-70
2021/12/04 02:39:45;;;;;;;;;;;5.50;99.90;;;;;;5017834;28;20339;-71
2021/12/04 02:42:21;;;;;;;;;;;5.60;99.90;;;;;;5027730;28;19913;-71
2021/12/04 02:44:46;;;;;;;;;;;5.60;99.90;;;;;;5029113;28;19955;-71
2021/12/04 02:47:12;;;;;;;;;;;5.70;99.90;;;;;;5031025;28;19909;-70
2021/12/04 02:49:37;;;;;;;;;;;5.70;99.90;;;;;;5013311;28;20338;-71
2021/12/04 02:52:04;;;;;;;;;;;5.70;99.90;;;;;;5014742;28;19940;-71
2021/12/04 02:54:30;;;;;;;;;;;5.80;99.90;;;;;;5034408;28;19909;-71
2021/12/04 02:56:55;;;;;;;;;;;5.90;99.90;;;;;;5022766;28;19917;-69
2021/12/04 02:59:21;;;;;;;;;;;5.80;99.90;;;;;;5012771;28;20425;-71
2021/12/04 03:01:46;;;;;;;;;;;5.90;99.90;;;;;;5009180;28;19981;-71
2021/12/04 03:04:12;;;;;;;;;;;5.90;99.90;;;;;;5020329;28;19917;-70
2021/12/04 03:06:43;;;;;;;;;;;5.80;99.90;;;;;;5019045;28;20034;-70
2021/12/04 03:09:09;;;;;;;;;;;5.80;99.90;;;;;;5018234;28;19910;-71
2021/12/04 03:11:34;;;;;;;;;;;5.80;99.90;;;;;;5027782;28;19947;-71
2021/12/04 03:14:00;;;;;;;;;;;5.70;99.90;;;;;;5020882;28;20378;-71
2021/12/04 03:16:26;;;;;;;;;;;5.70;99.90;;;;;;5011147;28;20008;-70
2021/12/04 03:18:51;;;;;;;;;;;5.80;99.90;;;;;;5012826;28;19975;-70
2021/12/04 03:21:17;;;;;;;;;;;5.80;99.90;;;;;;5011198;28;19980;-71
2021/12/04 03:23:52;;;;;;;;;;;5.70;99.90;;;;;;5011253;28;20412;-71
2021/12/04 03:26:19;;;;;;;;;;;5.70;99.90;;;;;;5011726;28;19964;-71
2021/12/04 03:28:45;;;;;;;;;;;5.80;99.90;;;;;;5019212;28;19913;-70
2021/12/04 03:31:19;;;;;;;;;;;5.70;99.90;;;;;;5012292;28;19996;-70
2021/12/04 03:41:56;;;;;;;;;;;5.80;99.90;;;;;;5015457;28;20309;-70
2021/12/04 03:44:22;;;;;;;;;;;5.80;99.90;;;;;;5011773;28;19909;-70
2021/12/04 03:46:48;;;;;;;;;;;5.90;99.90;;;;;;5011505;28;20381;-70
2021/12/04 03:49:14;;;;;;;;;;;5.90;99.90;;;;;;5009612;28;19917;-71
2021/12/04 03:51:39;;;;;;;;;;;5.90;99.90;;;;;;5010361;28;19916;-72
2021/12/04 03:54:05;;;;;;;;;;;5.90;99.90;;;;;;5010085;28;20026;-71
2021/12/04 03:56:32;;;;;;;;;;;6.00;99.90;;;;;;5009680;28;19913;-72
2021/12/04 03:58:57;;;;;;;;;;;6.10;99.90;;;;;;5009811;28;19925;-71
2021/12/04 04:01:23;;;;;;;;;;;6.10;99.90;;;;;;5009772;28;19920;-71
2021/12/04 04:03:48;;;;;;;;;;;6.10;99.90;;;;;;5020097;28;19917;-71
2021/12/04 04:06:14;;;;;;;;;;;6.00;99.90;;;;;;5013973;28;20015;-71
2021/12/04 04:08:40;;;;;;;;;;;6.00;99.90;;;;;;5018475;28;19910;-74
2021/12/04 04:11:06;;;;;;;;;;;6.10;99.90;;;;;;5010429;28;19910;-71
2021/12/04 04:13:31;;;;;;;;;;;6.10;99.90;;;;;;5011745;28;19909;-71
2021/12/04 04:15:59;;;;;;;;;;;6.10;99.90;;;;;;5022234;28;19971;-71
2021/12/04 04:18:25;;;;;;;;;;;6.00;99.90;;;;;;5029324;28;20644;-73
2021/12/04 04:20:50;;;;;;;;;;;6.00;99.90;;;;;;5029532;28;19921;-72
2021/12/04 04:23:16;;;;;;;;;;;6.20;99.90;;;;;;5021250;28;19914;-70
2021/12/04 04:25:42;;;;;;;;;;;6.20;99.90;;;;;;5009151;28;19965;-70
2021/12/04 04:28:07;;;;;;;;;;;6.20;99.90;;;;;;5008131;28;20362;-71
2021/12/04 04:30:33;;;;;;;;;;;6.20;99.90;;;;;;5009089;28;20009;-70
2021/12/04 04:33:00;;;;;;;;;;;6.10;99.90;;;;;;5024101;28;20491;-71
2021/12/04 04:35:27;;;;;;;;;;;6.30;99.90;;;;;;5009241;28;19944;-71
2021/12/04 04:57:21;;;;;;;;;;;6.20;99.90;;;;;;5009645;28;19926;-69
2021/12/04 05:00:23;;;;;;;;;;;6.00;99.90;;;;;;4986459;28;19924;-71
2021/12/04 05:13:22;;;;;;;;;;;6.20;99.90;;;;;;5013515;28;19917;-72
2021/12/04 05:21:04;;;;;;;;;;;6.00;99.90;;;;;;5007376;28;19961;-71
2021/12/04 05:23:30;;;;;;;;;;;6.00;99.90;;;;;;5009775;28;19914;-71
2021/12/04 05:25:56;;;;;;;;;;;5.90;99.90;;;;;;5007027;28;19917;-71
2021/12/04 05:28:22;;;;;;;;;;;5.90;99.90;;;;;;5007450;28;19917;-70
2021/12/04 05:30:48;;;;;;;;;;;5.80;99.90;;;;;;5007816;28;19964;-71
2021/12/04 05:33:14;;;;;;;;;;;5.80;99.90;;;;;;5008191;28;20004;-69
2021/12/04 05:35:39;;;;;;;;;;;5.80;99.90;;;;;;5007858;28;20008;-71
2021/12/04 05:38:05;;;;;;;;;;;5.80;99.90;;;;;;5007047;28;19917;-71
2021/12/04 05:40:30;;;;;;;;;;;5.80;99.90;;;;;;5006792;28;20017;-71
2021/12/04 05:43:01;;;;;;;;;;;5.90;99.90;;;;;;5006726;28;19964;-70
2021/12/04 05:45:27;;;;;;;;;;;5.80;99.90;;;;;;5008222;28;19918;-71
2021/12/04 05:48:05;;;;;;;;;;;5.80;99.90;;;;;;5006734;28;19921;-70
2021/12/04 05:55:28;;;;;;;;;;;5.80;99.90;;;;;;5027738;28;20413;-71
2021/12/04 05:57:53;;;;;;;;;;;5.70;99.90;;;;;;5026222;28;19913;-71
2021/12/04 06:00:20;;;;;;;;;;;5.70;99.90;;;;;;5027386;28;19921;-70
2021/12/04 06:02:46;;;;;;;;;;;5.70;99.90;;;;;;5028012;28;20248;-72
2021/12/04 06:05:12;;;;;;;;;;;5.70;99.90;;;;;;5011607;28;20281;-71
2021/12/04 06:07:37;;;;;;;;;;;5.70;99.90;;;;;;5022371;28;19925;-70
2021/12/04 06:10:03;;;;;;;;;;;5.70;99.90;;;;;;5024230;28;19924;-72
2021/12/04 06:12:29;;;;;;;;;;;5.70;99.90;;;;;;5003407;28;19918;-69
2021/12/04 06:14:54;;;;;;;;;;;5.70;99.90;;;;;;5007111;28;20026;-71
2021/12/04 06:17:20;;;;;;;;;;;5.70;99.90;;;;;;5008207;28;19910;-70
2021/12/04 06:22:43;;;;;;;;;;;5.70;99.90;;;;;;5022633;28;20036;-71
2021/12/04 06:25:10;;;;;;;;;;;5.70;99.90;;;;;;5010862;28;19943;-70
2021/12/04 06:27:36;;;;;;;;;;;5.70;99.90;;;;;;5013196;28;19914;-71
2021/12/04 06:30:06;;;;;;;;;;;5.60;99.90;;;;;;5014536;28;20516;-71
2021/12/04 06:32:32;;;;;;;;;;;5.70;99.90;;;;;;5014534;28;19909;-71
2021/12/04 06:34:57;;;;;;;;;;;5.70;99.90;;;;;;5014925;28;19909;-71
2021/12/04 06:37:23;;;;;;;;;;;5.70;99.90;;;;;;5022639;28;20385;-71
2021/12/04 06:39:48;;;;;;;;;;;5.70;99.90;;;;;;5023605;28;19971;-71
2021/12/04 06:42:14;;;;;;;;;;;5.70;99.90;;;;;;5018349;28;20401;-70
2021/12/04 06:44:39;;;;;;;;;;;5.60;99.90;;;;;;5018896;28;19929;-71
2021/12/04 06:47:05;;;;;;;;;;;5.60;99.90;;;;;;5018144;28;20008;-69
2021/12/04 06:49:35;;;;;;;;;;;5.60;99.90;;;;;;5019331;28;19917;-71
2021/12/04 06:52:04;;;;;;;;;;;5.60;99.90;;;;;;5014416;28;19941;-70
2021/12/04 06:54:35;;;;;;;;;;;5.60;99.90;;;;;;5014854;28;19920;-71
2021/12/04 06:57:03;;;;;;;;;;;5.60;99.90;;;;;;5014144;28;19917;-70
2021/12/04 06:59:31;;;;;;;;;;;5.60;99.90;;;;;;5013523;28;20136;-71
2021/12/04 07:01:57;;;;;;;;;;;5.60;99.90;;;;;;5016225;28;19910;-71
2021/12/04 07:04:28;;;;;;;;;;;5.60;99.90;;;;;;5023597;28;20290;-72
2021/12/04 07:06:54;;;;;;;;;;;5.50;99.90;;;;;;5017885;28;19926;-72
2021/12/04 07:09:19;;;;;;;;;;;5.50;99.90;;;;;;5010007;28;19918;-71
2021/12/04 07:11:45;;;;;;;;;;;5.60;99.90;;;;;;5005649;28;19933;-72
2021/12/04 07:14:10;;;;;;;;;;;5.60;99.90;;;;;;5005902;28;20639;-72
2021/12/04 07:16:36;;;;;;;;;;;5.60;99.90;;;;;;5013253;28;19914;-71
2021/12/04 07:19:02;;;;;;;;;;;5.50;99.90;;;;;;5014323;28;20456;-70
2021/12/04 07:21:27;;;;;;;;;;;5.50;99.90;;;;;;5029930;28;19909;-69
2021/12/04 07:23:53;;;;;;;;;;;5.50;99.90;;;;;;5013411;28;19963;-70
2021/12/04 07:26:18;;;;;;;;;;;5.60;99.90;;;;;;5014103;28;19972;-70
2021/12/04 07:28:44;;;;;;;;;;;5.50;99.90;;;;;;5019521;28;20519;-71
2021/12/04 07:31:09;;;;;;;;;;;5.50;99.90;;;;;;5016487;28;19910;-70
2021/12/04 07:33:35;;;;;;;;;;;5.40;99.90;;;;;;5011037;28;19916;-69
2021/12/04 07:36:00;;;;;;;;;;;5.50;99.90;;;;;;5010843;28;19909;-70
2021/12/04 07:38:27;;;;;;;;;;;5.50;99.90;;;;;;5010541;28;19914;-70
2021/12/04 07:40:52;;;;;;;;;;;5.60;99.90;;;;;;5010550;28;19944;-71
2021/12/04 07:43:18;;;;;;;;;;;5.60;99.90;;;;;;5010701;28;19932;-70
2021/12/04 07:45:44;;;;;;;;;;;5.70;99.90;;;;;;5010463;28;19921;-70
2021/12/04 07:48:09;;;;;;;;;;;5.70;99.90;;;;;;5010635;28;19909;-69
2021/12/04 07:50:35;;;;;;;;;;;5.70;99.90;;;;;;5025883;28;19916;-70
2021/12/04 07:53:02;;;;;;;;;;;5.70;99.90;;;;;;5009214;28;20421;-69
2021/12/04 07:55:28;;;;;;;;;;;5.70;99.90;;;;;;5009175;28;19924;-69
2021/12/04 07:57:53;;;;;;;;;;;5.60;99.90;;;;;;5010789;28;20311;-69
2021/12/04 08:00:19;;;;;;;;;;;5.60;99.90;;;;;;5017630;28;19910;-70
2021/12/04 08:02:45;;;;;;;;;;;5.60;99.90;;;;;;5020364;28;19910;-69
2021/12/04 08:05:11;;;;;;;;;;;5.60;99.90;;;;;;5010023;28;20397;-70
2021/12/04 08:07:38;;;;;;;;;;;5.70;99.90;;;;;;5011199;28;20000;-70
2021/12/04 08:10:04;;;;;;;;;;;5.60;99.90;;;;;;5010386;28;20556;-71
2021/12/04 08:12:30;;;;;;;;;;;5.70;99.90;;;;;;5008696;28;20429;-70
2021/12/04 08:14:55;;;;;;;;;;;5.60;99.90;;;;;;5009064;28;19913;-70
2021/12/04 08:17:21;;;;;;;;;;;5.60;99.90;;;;;;5009015;28;19933;-70
2021/12/04 08:19:46;;;;;;;;;;;5.50;99.90;;;;;;5009228;28;20388;-71
2021/12/04 08:22:12;;;;;;;;;;;5.50;99.90;;;;;;5008058;28;19917;-70
2021/12/04 08:24:37;;;;;;;;;;;5.60;99.90;;;;;;5007641;28;19932;-70
2021/12/04 08:27:03;;;;;;;;;;;5.60;99.90;;;;;;5008711;28;19917;-70
2021/12/04 08:29:29;;;;;;;;;;;5.70;99.90;;;;;;5009337;28;19921;-70
2021/12/04 08:31:54;;;;;;;;;;;5.70;99.90;;;;;;5009665;28;19949;-69
2021/12/04 08:34:20;;;;;;;;;;;5.70;99.90;;;;;;5010136;28;19921;-69
2021/12/04 08:36:45;;;;;;;;;;;5.60;99.90;;;;;;5009322;28;20023;-70
2021/12/04 08:39:11;;;;;;;;;;;5.60;99.90;;;;;;5024966;28;19913;-70
2021/12/04 08:41:37;;;;;;;;;;;5.60;99.90;;;;;;5009803;28;19914;-69
2021/12/04 08:44:03;;;;;;;;;;;5.60;99.90;;;;;;5009161;28;19909;-70
2021/12/04 08:46:29;;;;;;;;;;;5.60;99.90;;;;;;5009333;28;19920;-71
2021/12/04 08:48:55;;;;;;;;;;;5.60;99.90;;;;;;5011608;28;19910;-69
2021/12/04 08:51:22;;;;;;;;;;;5.60;99.90;;;;;;5008103;28;19917;-69
2021/12/04 08:53:48;;;;;;;;;;;5.60;99.90;;;;;;5006763;28;19917;-70
2021/12/04 08:56:13;;;;;;;;;;;5.60;99.90;;;;;;5007417;28;19991;-69
2021/12/04 08:58:40;;;;;;;;;;;5.60;99.90;;;;;;5009011;28;20428;-70
2021/12/04 09:01:08;;;;;;;;;;;5.60;99.90;;;;;;5008492;28;19909;-68
2021/12/04 09:03:35;;;;;;;;;;;5.60;99.90;;;;;;5011896;28;20016;-69
2021/12/04 09:06:02;;;;;;;;;;;5.60;99.90;;;;;;5011179;28;19914;-70
2021/12/04 09:08:28;;;;;;;;;;;5.70;99.90;;;;;;5016000;28;19917;-70
2021/12/04 09:10:55;;;;;;;;;;;5.70;99.90;;;;;;5021561;28;19909;-70
2021/12/04 09:13:21;;;;;;;;;;;5.80;99.90;;;;;;5014027;28;19909;-70
2021/12/04 09:15:47;;;;;;;;;;;5.60;99.90;;;;;;5010356;28;19909;-70
2021/12/04 09:18:12;;;;;;;;;;;5.70;99.90;;;;;;5009630;28;19921;-70
2021/12/04 09:20:38;;;;;;;;;;;5.70;99.90;;;;;;5008830;28;20507;-69
2021/12/04 09:23:06;;;;;;;;;;;5.70;99.90;;;;;;5008871;28;19924;-69
2021/12/04 09:25:33;;;;;;;;;;;5.70;99.90;;;;;;5007573;28;20029;-70
2021/12/04 10:00:45;;;;;;;;;;;5.90;99.90;;;;;;5011978;28;19956;-69
2021/12/04 10:19:56;;;;;;;;;;;5.90;99.90;;;;;;5012908;28;20382;-69
2021/12/04 10:33:49;;;;;;;;;;;5.90;99.90;;;;;;5005624;28;19943;-69
2021/12/04 10:36:29;;;;;;;;;;;5.90;99.90;;;;;;5008105;28;20009;-69
2021/12/04 10:38:55;;;;;;;;;;;5.80;99.90;;;;;;5007010;28;20313;-70
2021/12/04 10:41:31;;;;;;;;;;;5.90;99.90;;;;;;5008002;28;19937;-70
2021/12/04 10:44:07;;;;;;;;;;;6.00;99.90;;;;;;5015793;28;19920;-70
2021/12/04 10:46:32;;;;;;;;;;;5.90;99.90;;;;;;5007734;28;19917;-70
2021/12/04 10:49:12;;;;;;;;;;;6.00;99.90;;;;;;5016203;28;19916;-70
2021/12/04 10:51:47;;;;;;;;;;;5.90;99.90;;;;;;5008916;28;19957;-70
2021/12/04 10:54:16;;;;;;;;;;;6.00;99.90;;;;;;5008544;28;19914;-70
2021/12/04 10:57:14;;;;;;;;;;;5.90;99.90;;;;;;5008031;28;19920;-68
2021/12/04 10:59:49;;;;;;;;;;;5.90;99.90;;;;;;5005525;28;19959;-70
2021/12/04 11:02:22;;;;;;;;;;;6.00;99.90;;;;;;5007872;28;19948;-70
2021/12/04 11:23:44;;;;;;;;;;;6.00;99.90;;;;;;5009292;28;19949;-68
2021/12/04 11:47:14;;;;;;;;;;;6.30;99.90;;;;;;5011361;28;19932;-70
2021/12/04 11:49:40;;;;;;;;;;;6.30;99.90;;;;;;5008700;28;20402;-70
2021/12/04 11:52:11;;;;;;;;;;;6.20;99.90;;;;;;4994116;28;20082;-69
2021/12/04 11:54:43;;;;;;;;;;;6.30;99.90;;;;;;5008004;28;19945;-70
2021/12/04 11:57:10;;;;;;;;;;;6.20;99.90;;;;;;5009692;28;20377;-69
2021/12/04 11:59:36;;;;;;;;;;;6.30;99.90;;;;;;5019208;28;19976;-70
2021/12/04 12:02:03;;;;;;;;;;;6.20;99.90;;;;;;5013778;28;20141;-70
2021/12/04 12:04:34;;;;;;;;;;;6.20;99.90;;;;;;5016673;28;19957;-70
2021/12/04 12:07:10;;;;;;;;;;;6.30;99.90;;;;;;5009277;28;21295;-69
2021/12/04 12:09:37;;;;;;;;;;;6.20;99.90;;;;;;5008939;28;19913;-69
2021/12/04 12:12:05;;;;;;;;;;;6.30;99.90;;;;;;5007465;28;19913;-71
2021/12/04 12:14:36;;;;;;;;;;;6.20;99.90;;;;;;5009122;28;20278;-69
2021/12/04 12:17:02;;;;;;;;;;;6.30;99.90;;;;;;5009229;28;19909;-69
2021/12/04 12:19:31;;;;;;;;;;;6.30;99.90;;;;;;5017504;28;19932;-69
2021/12/04 12:22:05;;;;;;;;;;;6.30;99.90;;;;;;5022201;28;19963;-70
2021/12/04 12:25:21;;;;;;;;;;;6.40;99.90;;;;;;5033802;28;19963;-70
2021/12/04 12:38:31;;;;;;;;;;;6.40;99.90;;;;;;5010948;28;19920;-70
2021/12/04 12:40:59;;;;;;;;;;;6.50;99.90;;;;;;5012805;28;19917;-71
2021/12/04 12:43:32;;;;;;;;;;;6.50;99.90;;;;;;5025762;28;19968;-71
2021/12/04 12:45:58;;;;;;;;;;;6.60;99.90;;;;;;5009213;28;20586;-71
2021/12/04 12:48:24;;;;;;;;;;;6.60;99.90;;;;;;5009039;28;19979;-70
2021/12/04 12:50:52;;;;;;;;;;;6.60;99.90;;;;;;5007890;28;19920;-72
2021/12/04 12:53:19;;;;;;;;;;;6.50;99.90;;;;;;5008909;28;19909;-70
2021/12/04 12:55:46;;;;;;;;;;;6.50;99.90;;;;;;5008653;28;19918;-70
2021/12/04 12:58:14;;;;;;;;;;;6.40;99.90;;;;;;5008897;28;19933;-71
2021/12/04 13:12:03;;;;;;;;;;;6.50;99.90;;;;;;5009888;28;19956;-70
2021/12/04 13:14:31;;;;;;;;;;;6.50;99.90;;;;;;5008701;28;19979;-70
2021/12/04 13:16:59;;;;;;;;;;;6.50;99.90;;;;;;5010326;28;19910;-69
2021/12/04 13:19:26;;;;;;;;;;;6.50;99.90;;;;;;5024348;28;20357;-69
2021/12/04 13:21:53;;;;;;;;;;;6.50;99.90;;;;;;5009054;28;19914;-68
2021/12/04 13:24:22;;;;;;;;;;;6.50;99.90;;;;;;5008475;28;19909;-67
2021/12/04 13:26:49;;;;;;;;;;;6.50;99.90;;;;;;5008117;28;20179;-66
2021/12/04 13:29:16;;;;;;;;;;;6.50;99.90;;;;;;5007025;28;19992;-65
2021/12/04 13:31:43;;;;;;;;;;;6.60;99.90;;;;;;5007635;28;19936;-64
2021/12/04 13:34:09;;;;;;;;;;;6.40;99.90;;;;;;5008191;28;20199;-63
2021/12/04 13:36:35;;;;;;;;;;;6.40;99.90;;;;;;5008099;28;20257;-63
2021/12/04 13:39:11;;;;;;;;;;;6.30;99.90;;;;;;5007936;28;19992;-63
2021/12/04 13:41:38;;;;;;;;;;;6.20;99.90;;;;;;5007954;28;19913;-61
2021/12/04 13:44:05;;;;;;;;;;;6.20;99.90;;;;;;5007622;28;19909;-62
2021/12/04 13:46:38;;;;;;;;;;;6.20;99.90;;;;;;5008498;28;19921;-63
2021/12/04 13:49:04;;;;;;;;;;;6.20;99.90;;;;;;5007878;28;19971;-63
2021/12/04 13:51:29;;;;;;;;;;;6.20;99.90;;;;;;5007511;28;19917;-62
2021/12/04 13:53:54;;;;;;;;;;;6.10;99.90;;;;;;5007612;28;20012;-63
2021/12/04 13:56:24;;;;;;;;;;;6.20;99.90;;;;;;5005992;28;20392;-62
2021/12/04 13:58:57;;;;;;;;;;;6.20;99.90;;;;;;5015536;28;19992;-63
2021/12/04 14:01:24;;;;;;;;;;;6.20;99.90;;;;;;5007770;28;20651;-61
2021/12/04 14:03:53;;;;;;;;;;;6.20;99.90;;;;;;5012910;28;19968;-60
2021/12/04 14:06:19;;;;;;;;;;;6.20;99.90;;;;;;5012014;28;19921;-59
2021/12/04 14:08:55;;;;;;;;;;;6.20;99.90;;;;;;5026873;28;19944;-61
2021/12/04 14:11:34;;;;;;;;;;;6.20;99.90;;;;;;5027753;28;20417;-62
2021/12/04 14:14:09;;;;;;;;;;;6.20;99.90;;;;;;5007502;28;20341;-62
2021/12/04 14:16:34;;;;;;;;;;;6.30;99.90;;;;;;5008469;28;20433;-62
2021/12/04 14:19:09;;;;;;;;;;;6.30;99.90;;;;;;5008254;28;19910;-62
2021/12/04 14:21:34;;;;;;;;;;;6.30;99.90;;;;;;5009397;28;19913;-62
2021/12/04 14:24:00;;;;;;;;;;;6.30;99.90;;;;;;5008542;28;19909;-61
2021/12/04 14:26:25;;;;;;;;;;;6.30;99.90;;;;;;5007439;28;19917;-63
2021/12/04 14:28:51;;;;;;;;;;;6.30;99.90;;;;;;5007537;28;20004;-63
2021/12/04 14:31:21;;;;;;;;;;;6.30;99.90;;;;;;5007267;28;20009;-64
2021/12/04 14:33:47;;;;;;;;;;;6.30;99.90;;;;;;5007182;28;20038;-62
2021/12/04 14:36:17;;;;;;;;;;;6.30;99.90;;;;;;5007544;28;20413;-63
2021/12/04 14:38:43;;;;;;;;;;;6.30;99.90;;;;;;5007119;28;20224;-62
2021/12/04 14:41:09;;;;;;;;;;;6.30;99.90;;;;;;5010185;28;19909;-62
2021/12/04 14:43:37;;;;;;;;;;;6.30;99.90;;;;;;5011899;28;20157;-63
2021/12/04 14:46:05;;;;;;;;;;;6.30;99.90;;;;;;5012385;28;19913;-61
2021/12/04 14:48:34;;;;;;;;;;;6.40;99.90;;;;;;5012045;28;19988;-63
2021/12/04 14:51:05;;;;;;;;;;;6.30;99.90;;;;;;5012453;28;20328;-63
2021/12/04 14:53:35;;;;;;;;;;;6.40;99.90;;;;;;5013435;28;19960;-63
2021/12/04 14:56:04;;;;;;;;;;;6.40;99.90;;;;;;5011811;28;19913;-62
2021/12/04 14:58:30;;;;;;;;;;;6.40;99.90;;;;;;5012344;28;19915;-62
2021/12/04 15:01:01;;;;;;;;;;;6.50;99.90;;;;;;5011444;28;19913;-63
2021/12/04 15:03:38;;;;;;;;;;;6.50;99.90;;;;;;5022871;28;20410;-62
2021/12/04 15:06:06;;;;;;;;;;;6.70;99.90;;;;;;5015187;28;19920;-63
2021/12/04 15:08:35;;;;;;;;;;;6.70;99.90;;;;;;5032532;28;19964;-62
2021/12/04 15:11:06;;;;;;;;;;;6.70;99.90;;;;;;5012116;28;19917;-63
2021/12/04 15:13:34;;;;;;;;;;;6.70;99.90;;;;;;5011743;28;19913;-62
2021/12/04 15:16:03;;;;;;;;;;;6.70;99.90;;;;;;5011793;28;20282;-62
2021/12/04 15:18:30;;;;;;;;;;;6.80;99.90;;;;;;5010218;28;19914;-62
2021/12/04 15:20:57;;;;;;;;;;;6.90;99.90;;;;;;5010458;28;19920;-62
2021/12/04 15:23:23;;;;;;;;;;;6.80;99.90;;;;;;5011108;28;19939;-62
2021/12/04 15:25:52;;;;;;;;;;;6.90;99.90;;;;;;5011074;28;19913;-62
2021/12/04 15:28:21;;;;;;;;;;;6.90;99.90;;;;;;5010679;28;19913;-62
2021/12/04 15:30:50;;;;;;;;;;;6.90;99.90;;;;;;5010899;28;20412;-63
2021/12/04 15:33:36;;;;;;;;;;;6.80;99.90;;;;;;5009892;28;19914;-62
2021/12/04 15:36:01;;;;;;;;;;;6.70;99.90;;;;;;5004505;28;20008;-61
2021/12/04 15:38:39;;;;;;;;;;;6.70;99.90;;;;;;4996133;28;19996;-61
2021/12/04 15:41:19;;;;;;;;;;;6.70;99.90;;;;;;5025318;28;19932;-62
2021/12/04 15:44:08;;;;;;;;;;;6.60;99.90;;;;;;5011227;28;19936;-64
2021/12/04 15:46:56;;;;;;;;;;;6.60;99.90;;;;;;5009522;28;19917;-62
2021/12/04 15:53:14;;;;;;;;;;;6.40;99.90;;;;;;5016311;28;19959;-63
2021/12/04 15:55:11;;;;;;;;;;;6.30;99.90;;;;;;5010419;28;20396;-64
2021/12/04 15:57:37;;;;;;;;;;;6.20;99.90;;;;;;5028054;28;19909;-62
2021/12/04 16:00:08;;;;;;;;;;;6.20;99.90;;;;;;5020488;28;20008;-63
2021/12/04 16:02:37;;;;;;;;;;;6.20;99.90;;;;;;5015584;28;20423;-62
2021/12/04 16:05:07;;;;;;;;;;;6.20;99.90;;;;;;5013610;28;19921;-62
2021/12/04 16:07:33;;;;;;;;;;;6.20;99.90;;;;;;5020869;28;19917;-62
2021/12/04 16:10:04;;;;;;;;;;;6.20;99.90;;;;;;5008636;28;19964;-61
2021/12/04 16:12:29;;;;;;;;;;;6.30;99.90;;;;;;5011442;28;19914;-62
2021/12/04 16:14:56;;;;;;;;;;;6.20;99.90;;;;;;5009530;28;20203;-61
2021/12/04 16:17:22;;;;;;;;;;;6.20;99.90;;;;;;5004416;28;19953;-61
2021/12/04 16:19:51;;;;;;;;;;;6.20;99.90;;;;;;5009121;28;19964;-63
2021/12/04 16:22:17;;;;;;;;;;;6.10;99.90;;;;;;5007405;28;19917;-62
2021/12/04 16:24:47;;;;;;;;;;;6.00;99.90;;;;;;5007842;28;19913;-62
2021/12/04 16:27:17;;;;;;;;;;;6.00;99.90;;;;;;5005757;28;19924;-64
2021/12/04 16:29:53;;;;;;;;;;;6.00;99.90;;;;;;5007684;28;20309;-64
2021/12/04 16:35:21;;;;;;;;;;;5.90;99.90;;;;;;5009199;28;20008;-64
2021/12/04 16:37:48;;;;;;;;;;;6.00;99.90;;;;;;5006455;28;19935;-64
2021/12/04 16:40:26;;;;;;;;;;;6.10;99.90;;;;;;5004909;28;19941;-63
2021/12/04 16:43:00;;;;;;;;;;;6.00;99.90;;;;;;5003302;28;19928;-63
2021/12/04 16:45:26;;;;;;;;;;;6.00;99.90;;;;;;5007184;28;19918;-64
2021/12/04 16:47:53;;;;;;;;;;;6.00;99.90;;;;;;5008184;28;19984;-63
2021/12/04 16:50:22;;;;;;;;;;;6.00;99.90;;;;;;5007629;28;19909;-63
2021/12/04 16:56:03;;;;;;;;;;;5.90;99.90;;;;;;5008041;28;19995;-63
2021/12/04 16:58:29;;;;;;;;;;;5.90;99.90;;;;;;5005565;28;20274;-63
2021/12/04 17:00:55;;;;;;;;;;;5.80;99.90;;;;;;5005944;28;19937;-64
2021/12/04 17:03:21;;;;;;;;;;;5.90;99.90;;;;;;5008103;28;20380;-63
2021/12/04 17:05:46;;;;;;;;;;;5.90;99.90;;;;;;5006384;28;19913;-64
2021/12/04 17:08:12;;;;;;;;;;;5.90;99.90;;;;;;5006947;28;20285;-63
2021/12/04 17:10:37;;;;;;;;;;;5.90;99.90;;;;;;5006563;28;20354;-62
2021/12/04 17:13:04;;;;;;;;;;;5.90;99.90;;;;;;5006075;28;20220;-63
2021/12/04 17:15:30;;;;;;;;;;;5.90;99.90;;;;;;5005862;28;20301;-64
2021/12/04 17:17:57;;;;;;;;;;;5.90;99.90;;;;;;5006184;28;19925;-63
2021/12/04 17:20:23;;;;;;;;;;;5.80;99.90;;;;;;5007096;28;19957;-61
2021/12/04 17:22:50;;;;;;;;;;;5.80;99.90;;;;;;5023088;28;19941;-63
2021/12/04 17:25:16;;;;;;;;;;;5.70;99.90;;;;;;5005319;28;19929;-62
2021/12/04 17:27:42;;;;;;;;;;;5.80;99.90;;;;;;5006743;28;19909;-63
2021/12/04 17:30:09;;;;;;;;;;;5.80;99.90;;;;;;5013545;28;20000;-63
2021/12/04 17:32:35;;;;;;;;;;;5.70;99.90;;;;;;5025903;28;20352;-63
2021/12/04 17:35:01;;;;;;;;;;;5.70;99.90;;;;;;5026071;28;19991;-62
2021/12/04 17:37:29;;;;;;;;;;;5.70;99.90;;;;;;5007289;28;20024;-64
2021/12/04 17:39:55;;;;;;;;;;;5.80;99.90;;;;;;5025962;28;19913;-64
2021/12/04 17:42:23;;;;;;;;;;;5.80;99.90;;;;;;5027703;28;20346;-63
2021/12/04 17:44:49;;;;;;;;;;;5.80;99.90;;;;;;5027793;28;19909;-62
2021/12/04 17:47:14;;;;;;;;;;;5.80;99.90;;;;;;5028005;28;19913;-63
2021/12/04 17:49:40;;;;;;;;;;;5.70;99.90;;;;;;5027948;28;19910;-63
2021/12/04 17:52:05;;;;;;;;;;;5.70;99.90;;;;;;5042838;28;19920;-62